• Join FlightAware (Why Join?)
  • Login
  • US Flag 
01:50AM EDT


 

Airport Tracker/Info


-or-


 

Live Flight TrackerFlight Track Log ✈ N78EU ✈ 26-Sep-2013 ✈ KHKY - KAVL

Flight Track Log - Related Links

Times and Time Zones

All times are in EDT time to prevent confusion due to time zone crossing. See the N78EU flight status page for this flight to view local times or setup timezone preferences in your user account.

Time Position Orientation Groundspeed Altitude Reporting Facility
EDT Latitude Longitude Course Direction KTS MPH feet Rate Location/Type
11:23AM 35.7142 -81.4683 256° West 124 143 2,900  Level Atlanta Center
11:24AM 35.7025 -81.5069 250° West 124 143 3,700 840 Climbing Atlanta Center
11:25AM 35.6931 -81.5508 255° West 124 143 4,600 840 Climbing Atlanta Center
11:26AM 35.6814 -81.5919 251° West 129 148 5,400 660 Climbing Atlanta Center
11:27AM 35.6717 -81.6333 254° West 129 148 6,000 300 Climbing Atlanta Center
11:28AM 35.6581 -81.6847 252° West 150 173 6,000  Level Atlanta Center
11:29AM 35.6447 -81.7414 254° West 161 185 6,000  Level Atlanta Center
11:30AM 35.6311 -81.7953 253° West 168 193 6,000  Level Atlanta Center
11:31AM 35.6175 -81.8494 253° West 168 193 6,000  Level Atlanta Center
11:32AM 35.6036 -81.8983 251° West 163 188 6,000  Level Atlanta Center
11:33AM 35.5794 -81.9475 239° Southwest 168 193 6,000  Level Atlanta Center
11:34AM 35.5531 -81.9967 237° Southwest 177 204 6,000  Level Atlanta Center
11:35AM 35.5308 -82.0381 237° Southwest 177 204 6,000  Level Atlanta Center
11:36AM 35.5044 -82.0872 237° Southwest 172 198 6,000  Level Atlanta Center
11:37AM 35.4803 -82.1361 239° Southwest 172 198 6,000  Level Atlanta Center
11:38AM 35.4558 -82.1800 236° Southwest 172 198 6,000  Level Atlanta Center
11:39AM 35.4294 -82.2292 237° Southwest 178 205 6,000  Level Atlanta Center
11:40AM 35.3881 -82.2556 207° Southwest 166 191 6,000  Level Atlanta Center
11:41AM 35.3469 -82.2819 208° Southwest 171 197 6,000  Level Atlanta Center
11:42AM 35.2992 -82.3058 202° Southwest 171 197 6,000 -60 Level Atlanta Center
11:43AM 35.2600 -82.3344 211° Southwest 171 197 5,900 -420 Descending Atlanta Center
11:44AM 35.2378 -82.3883 243° Southwest 166 191 5,200 -420 Descending Atlanta Center
11:45AM 35.2028 -82.4297 224° Southwest 172 198 5,100 360 Descending Atlanta Center
11:46AM 35.1783 -82.4658 230° Southwest 172 198 6,000  Climbing Atlanta Center
11:47AM 35.2783 -82.4717 357° North 162 186 5,100 -900 Descending Atlanta Center